createdAt,value
2018-08-13T00:00:41.869Z,72.48
2018-08-13T00:03:17.264Z,72.85
2018-08-13T00:05:51.985Z,73.08
2018-08-13T00:08:26.624Z,73.61
2018-08-13T00:11:01.106Z,74.42
2018-08-13T00:13:35.521Z,72.87
2018-08-13T00:16:10.316Z,73.52
2018-08-13T00:18:45.056Z,73.87
2018-08-13T00:21:20.041Z,73.95
2018-08-13T00:23:54.338Z,73.58
2018-08-13T00:26:29.089Z,74.34
2018-08-13T00:29:03.847Z,74.46
2018-08-13T00:31:38.641Z,73.55
2018-08-13T00:34:13.784Z,73.80
2018-08-13T00:36:48.124Z,73.93
2018-08-13T00:39:22.440Z,73.73
2018-08-13T00:41:57.689Z,74.21
2018-08-13T00:44:32.853Z,73.96
2018-08-13T00:47:07.704Z,74.03
2018-08-13T00:49:42.165Z,73.38
2018-08-13T00:52:17.112Z,72.71
2018-08-13T00:54:51.519Z,73.16
2018-08-13T00:57:26.952Z,73.14
2018-08-13T01:00:02.108Z,73.02
2018-08-13T01:02:36.928Z,73.91
2018-08-13T01:05:11.756Z,74.18
2018-08-13T01:07:46.119Z,74.09
2018-08-13T01:10:21.581Z,75.07
2018-08-13T01:12:55.849Z,74.27
2018-08-13T01:15:30.960Z,73.90
2018-08-13T01:18:06.241Z,74.43
2018-08-13T01:20:41.149Z,74.54
2018-08-13T01:23:15.488Z,74.05
2018-08-13T01:25:50.193Z,74.37
2018-08-13T01:28:24.932Z,74.91
2018-08-13T01:30:59.429Z,74.29
2018-08-13T01:33:34.262Z,74.29
2018-08-13T01:36:08.933Z,74.80
2018-08-13T01:38:44.092Z,74.89
2018-08-13T01:41:18.841Z,74.11
2018-08-13T01:43:53.831Z,74.54
2018-08-13T01:46:28.707Z,74.43
2018-08-13T01:49:03.532Z,75.07
2018-08-13T01:51:38.653Z,75.23
2018-08-13T01:54:12.933Z,74.81
2018-08-13T01:56:47.669Z,75.36
2018-08-13T01:59:22.142Z,74.90
2018-08-13T02:01:56.777Z,75.28
2018-08-13T02:04:32.033Z,75.75
2018-08-13T02:07:06.793Z,75.83
2018-08-13T02:09:42.404Z,75.24
2018-08-13T02:12:16.985Z,75.01
2018-08-13T02:14:51.872Z,75.30
2018-08-13T02:17:26.513Z,76.26
2018-08-13T02:20:01.233Z,76.07
2018-08-13T02:22:35.759Z,76.51
2018-08-13T02:25:10.156Z,76.44
2018-08-13T02:27:44.488Z,76.78
2018-08-13T02:30:18.880Z,76.45
2018-08-13T02:32:53.879Z,76.62
2018-08-13T02:35:28.708Z,78.14
2018-08-13T02:38:03.213Z,77.91
2018-08-13T02:40:37.613Z,76.88
2018-08-13T02:43:12.050Z,76.22
2018-08-13T02:45:47.040Z,76.25
2018-08-13T02:48:21.412Z,77.00
2018-08-13T02:50:55.894Z,76.87
2018-08-13T02:53:30.456Z,76.27
2018-08-13T02:56:05.190Z,77.58
2018-08-13T02:58:39.878Z,78.21
2018-08-13T03:01:14.220Z,77.75
2018-08-13T03:03:49.000Z,76.74
2018-08-13T03:06:23.821Z,76.39
2018-08-13T03:08:58.431Z,76.80
2018-08-13T03:11:32.733Z,77.10
2018-08-13T03:14:07.203Z,77.41
2018-08-13T03:16:42.000Z,77.27
2018-08-13T03:19:16.319Z,78.04
2018-08-13T03:21:50.957Z,77.65
2018-08-13T03:24:25.628Z,77.98
2018-08-13T03:27:00.073Z,78.08
2018-08-13T03:29:34.421Z,77.21
2018-08-13T03:32:09.075Z,77.51
2018-08-13T03:34:43.420Z,77.39
2018-08-13T03:37:17.910Z,78.26
2018-08-13T03:39:52.315Z,79.01
2018-08-13T03:42:27.175Z,78.40
2018-08-13T03:45:01.496Z,78.30
2018-08-13T03:47:35.944Z,79.59
2018-08-13T03:50:11.741Z,78.51
2018-08-13T03:52:46.287Z,78.92
2018-08-13T03:55:21.281Z,77.97
2018-08-13T03:57:56.089Z,78.96
2018-08-13T04:00:30.504Z,78.99
2018-08-13T04:03:06.005Z,78.53
2018-08-13T04:05:40.384Z,78.62
2018-08-13T04:08:16.033Z,78.23
2018-08-13T04:10:50.376Z,79.15
2018-08-13T04:13:24.867Z,78.53
2018-08-13T04:15:59.981Z,77.87
2018-08-13T04:18:34.402Z,77.52
2018-08-13T04:21:09.451Z,77.64
2018-08-13T04:23:44.016Z,78.22
2018-08-13T04:26:18.692Z,78.68
2018-08-13T04:28:53.544Z,78.78
2018-08-13T04:31:28.169Z,78.53
2018-08-13T04:34:02.840Z,77.72
2018-08-13T04:36:37.530Z,78.86
2018-08-13T04:39:13.659Z,78.55
2018-08-13T04:41:48.090Z,79.70
2018-08-13T04:44:22.924Z,80.16
2018-08-13T04:46:57.741Z,80.32
2018-08-13T04:49:32.670Z,80.03
2018-08-13T04:52:07.189Z,79.81
2018-08-13T04:54:42.131Z,79.81
2018-08-13T04:57:17.453Z,79.56
2018-08-13T04:59:51.807Z,79.36
2018-08-13T05:02:27.215Z,78.02
2018-08-13T05:05:02.159Z,79.02
2018-08-13T05:07:36.628Z,79.11
2018-08-13T05:10:11.920Z,78.19
2018-08-13T05:12:46.697Z,78.60
2018-08-13T05:15:21.725Z,77.97
2018-08-13T05:17:56.412Z,78.16
2018-08-13T05:20:31.256Z,77.68
2018-08-13T05:23:06.179Z,77.03
2018-08-13T05:25:40.760Z,76.31
2018-08-13T05:28:15.383Z,75.29
2018-08-13T05:30:49.788Z,75.85
2018-08-13T05:33:24.586Z,75.51
2018-08-13T05:35:59.237Z,74.24
2018-08-13T05:38:33.629Z,74.55
2018-08-13T05:41:08.349Z,73.90
2018-08-13T05:43:42.638Z,73.22
2018-08-13T05:46:17.140Z,73.42
2018-08-13T05:48:51.653Z,72.57
2018-08-13T05:51:25.985Z,73.71
2018-08-13T05:54:00.765Z,73.28
2018-08-13T05:56:35.289Z,73.27
2018-08-13T05:59:09.833Z,71.76
2018-08-13T06:01:47.911Z,72.06
2018-08-13T06:04:22.393Z,72.78
2018-08-13T06:06:57.092Z,72.67
2018-08-13T06:12:42.724Z,71.41
2018-08-13T06:15:17.640Z,71.49
2018-08-13T06:17:52.009Z,72.58
2018-08-13T06:20:28.136Z,69.37
2018-08-13T06:23:02.773Z,68.39
2018-08-13T06:25:37.633Z,68.94
2018-08-13T06:28:16.763Z,67.79
2018-08-13T06:30:56.585Z,68.87
2018-08-13T06:36:19.904Z,67.73
2018-08-13T06:38:54.738Z,67.80
2018-08-13T06:41:30.311Z,66.76
2018-08-13T06:44:05.105Z,66.87
2018-08-13T06:46:39.556Z,67.07
2018-08-13T06:49:14.719Z,66.05
2018-08-13T06:51:49.272Z,64.89
2018-08-13T06:54:23.891Z,65.90
2018-08-13T06:56:58.308Z,65.51
2018-08-13T06:59:33.099Z,65.39
2018-08-13T07:02:07.966Z,63.80
2018-08-13T07:04:42.612Z,63.43
2018-08-13T07:07:17.280Z,64.44
2018-08-13T07:09:51.962Z,63.32
2018-08-13T07:12:26.626Z,63.45
2018-08-13T07:15:01.151Z,61.71
2018-08-13T07:20:38.149Z,61.80
2018-08-13T07:23:13.108Z,62.89
2018-08-13T07:25:47.680Z,62.11
2018-08-13T07:28:22.029Z,60.48
2018-08-13T07:30:56.921Z,60.52
2018-08-13T07:33:31.431Z,58.78
2018-08-13T07:36:06.230Z,60.09
2018-08-13T07:38:41.180Z,59.34
2018-08-13T07:41:15.476Z,57.88
2018-08-13T07:43:49.916Z,58.40
2018-08-13T07:46:24.697Z,56.10
2018-08-13T07:48:59.810Z,56.46
2018-08-13T07:51:34.582Z,55.84
2018-08-13T07:54:09.977Z,55.00
2018-08-13T07:56:44.641Z,56.22
2018-08-13T07:59:19.084Z,58.24
2018-08-13T08:01:54.005Z,57.31
2018-08-13T08:04:28.661Z,54.86
2018-08-13T08:07:03.604Z,56.64
2018-08-13T08:09:37.912Z,55.94
2018-08-13T08:12:12.448Z,55.55
2018-08-13T08:14:46.984Z,53.77
2018-08-13T08:17:21.688Z,52.34
2018-08-13T08:19:56.225Z,51.04
2018-08-13T08:22:30.681Z,45.59
2018-08-13T08:25:07.956Z,44.11
2018-08-13T08:27:43.118Z,43.89
2018-08-13T08:30:17.675Z,43.55
2018-08-13T08:32:53.135Z,48.82
2018-08-13T08:35:27.513Z,40.97
2018-08-13T08:38:02.224Z,45.28
2018-08-13T08:40:37.306Z,38.53
2018-08-13T08:43:12.393Z,44.48
2018-08-13T08:45:47.343Z,44.90
2018-08-13T08:48:22.228Z,44.33
2018-08-13T08:50:56.568Z,48.28
2018-08-13T08:53:30.907Z,42.73
2018-08-13T08:56:05.812Z,40.88
2018-08-13T08:58:40.700Z,38.85
2018-08-13T09:01:15.196Z,41.31
2018-08-13T09:03:50.144Z,42.56
2018-08-13T09:06:24.457Z,33.18
2018-08-13T09:08:59.135Z,35.13
2018-08-13T09:11:33.777Z,35.33
2018-08-13T09:14:08.847Z,32.09
2018-08-13T09:16:45.797Z,35.31
2018-08-13T09:19:31.861Z,36.60
2018-08-13T09:22:17.519Z,38.14
2018-08-13T09:25:03.572Z,41.22
2018-08-13T09:27:49.631Z,40.06
2018-08-13T09:30:35.407Z,41.40
2018-08-13T09:33:21.464Z,40.82
2018-08-13T09:35:56.142Z,34.12
2018-08-13T09:38:30.540Z,31.53
2018-08-13T09:41:05.087Z,37.80
2018-08-13T09:43:40.081Z,39.08
2018-08-13T09:46:14.733Z,36.39
2018-08-13T09:48:49.210Z,36.38
2018-08-13T09:51:23.648Z,35.20
2018-08-13T09:53:58.311Z,35.71
2018-08-13T09:56:32.800Z,41.35
2018-08-13T09:59:07.639Z,36.60
2018-08-13T10:01:42.155Z,37.93
2018-08-13T10:04:16.713Z,29.49
2018-08-13T10:06:51.745Z,29.68
2018-08-13T10:09:26.275Z,30.33
2018-08-13T10:12:01.091Z,29.66
2018-08-13T10:14:35.867Z,30.37
2018-08-13T10:17:10.192Z,29.96
2018-08-13T10:19:44.946Z,33.54
2018-08-13T10:22:19.564Z,29.19
2018-08-13T10:24:54.487Z,27.65
2018-08-13T10:27:29.076Z,29.35
2018-08-13T10:30:03.776Z,33.49
2018-08-13T10:32:38.569Z,30.35
2018-08-13T10:35:13.475Z,33.27
2018-08-13T10:37:48.278Z,33.15
2018-08-13T10:40:23.376Z,33.71
2018-08-13T10:43:05.246Z,30.92
2018-08-13T10:45:39.544Z,29.53
2018-08-13T10:48:14.373Z,32.78
2018-08-13T10:50:49.376Z,33.62
2018-08-13T10:53:23.752Z,34.33
2018-08-13T10:55:58.776Z,30.50
2018-08-13T10:58:33.847Z,31.24
2018-08-13T11:01:08.544Z,33.00
2018-08-13T11:03:43.629Z,29.56
2018-08-13T11:06:18.406Z,29.77
2018-08-13T11:08:52.701Z,28.34
2018-08-13T11:11:27.068Z,30.69
2018-08-13T11:14:02.080Z,35.09
2018-08-13T11:16:36.594Z,33.93
2018-08-13T11:19:11.738Z,32.19
2018-08-13T11:21:46.552Z,30.73
2018-08-13T11:24:21.461Z,31.18
2018-08-13T11:26:55.760Z,33.39
2018-08-13T11:29:30.428Z,34.74
2018-08-13T11:32:05.375Z,32.23
2018-08-13T11:34:40.431Z,34.07
2018-08-13T11:37:15.353Z,30.15
2018-08-13T11:39:50.204Z,28.80
2018-08-13T11:42:28.871Z,31.85
2018-08-13T11:45:06.731Z,28.85
2018-08-13T11:47:44.379Z,29.39
2018-08-13T11:50:20.444Z,30.69
2018-08-13T11:52:58.005Z,29.94
2018-08-13T11:55:33.767Z,34.74
2018-08-13T11:58:08.287Z,30.06
2018-08-13T12:00:43.185Z,33.23
2018-08-13T12:03:17.948Z,32.32
2018-08-13T12:05:52.687Z,29.77
2018-08-13T12:08:27.248Z,30.17
2018-08-13T12:11:02.574Z,33.28
2018-08-13T12:13:37.962Z,30.12
2018-08-13T12:16:13.131Z,28.84
2018-08-13T12:18:48.468Z,36.51
2018-08-13T12:21:23.352Z,33.18
2018-08-13T12:23:59.386Z,30.28
2018-08-13T12:26:37.678Z,29.06
2018-08-13T12:29:12.886Z,29.17
2018-08-13T12:31:47.548Z,28.00
2018-08-13T12:34:22.743Z,28.76
2018-08-13T12:37:03.374Z,27.84
2018-08-13T12:39:39.445Z,30.75
2018-08-13T12:42:15.197Z,33.12
2018-08-13T12:44:50.632Z,29.92
2018-08-13T12:47:24.968Z,29.09
2018-08-13T12:49:59.248Z,28.03
2018-08-13T12:52:34.028Z,27.89
2018-08-13T12:55:09.984Z,29.89
2018-08-13T12:57:44.461Z,33.48
2018-08-13T13:00:19.331Z,30.83
2018-08-13T13:02:54.001Z,35.44
2018-08-13T13:05:29.540Z,32.81
2018-08-13T13:08:04.400Z,30.76
2018-08-13T13:10:38.954Z,32.10
2018-08-13T13:13:13.964Z,32.75
2018-08-13T13:15:48.309Z,36.19
2018-08-13T13:18:22.769Z,35.92
2018-08-13T13:20:57.464Z,33.62
2018-08-13T13:23:31.928Z,35.27
2018-08-13T13:26:07.144Z,35.57
2018-08-13T13:28:42.275Z,33.75
2018-08-13T13:31:16.617Z,34.02
2018-08-13T13:33:51.352Z,35.05
2018-08-13T13:36:26.665Z,34.36
2018-08-13T13:39:01.233Z,37.11
2018-08-13T13:41:35.755Z,35.07
2018-08-13T13:44:10.348Z,37.93
2018-08-13T13:46:44.731Z,38.89
2018-08-13T13:49:20.304Z,37.10
2018-08-13T13:51:55.348Z,40.48
2018-08-13T13:54:30.484Z,39.72
2018-08-13T13:57:04.936Z,38.58
2018-08-13T13:59:39.809Z,38.31
2018-08-13T14:02:14.783Z,36.29
2018-08-13T14:04:49.564Z,38.84
2018-08-13T14:07:24.151Z,38.78
2018-08-13T14:09:58.964Z,40.85
2018-08-13T14:12:33.410Z,39.60
2018-08-13T14:15:09.748Z,40.31
2018-08-13T14:17:44.331Z,39.76
2018-08-13T14:20:19.411Z,39.12
2018-08-13T14:22:54.099Z,40.07
2018-08-13T14:25:28.759Z,43.51
2018-08-13T14:28:03.310Z,43.96
2018-08-13T14:30:38.472Z,43.74
2018-08-13T14:33:19.872Z,44.75
2018-08-13T14:35:55.104Z,46.80
2018-08-13T14:38:30.204Z,52.00
2018-08-13T14:41:04.861Z,59.25
2018-08-13T14:43:39.529Z,68.16
2018-08-13T14:46:14.181Z,72.51
2018-08-13T14:48:49.333Z,74.15
2018-08-13T14:51:24.489Z,78.09
2018-08-13T14:53:58.824Z,80.12
2018-08-13T14:56:33.508Z,81.64
2018-08-13T14:59:08.544Z,82.25
2018-08-13T15:01:45.924Z,81.38
2018-08-13T15:04:21.048Z,81.59
2018-08-13T15:06:56.060Z,82.85
2018-08-13T15:09:30.480Z,83.10
2018-08-13T15:12:08.929Z,82.89
2018-08-13T15:14:43.776Z,82.87
2018-08-13T15:17:18.584Z,84.18
2018-08-13T15:19:53.435Z,82.93
2018-08-13T15:22:28.057Z,82.27
2018-08-13T15:25:03.797Z,80.95
2018-08-13T15:27:42.191Z,81.70
2018-08-13T15:30:18.688Z,82.92
2018-08-13T15:32:53.697Z,83.37
2018-08-13T15:35:37.701Z,82.13
2018-08-13T15:38:12.744Z,82.78
2018-08-13T15:40:47.248Z,83.00
2018-08-13T15:43:23.380Z,82.51
2018-08-13T15:46:02.457Z,82.76
2018-08-13T15:48:39.453Z,83.31
2018-08-13T15:51:14.042Z,82.53
2018-08-13T15:53:49.017Z,81.95
2018-08-13T15:56:23.562Z,81.61
2018-08-13T15:58:59.510Z,83.48
2018-08-13T16:01:34.194Z,81.99
2018-08-13T16:04:08.944Z,83.52
2018-08-13T16:06:43.833Z,83.19
2018-08-13T16:09:19.951Z,83.02
2018-08-13T16:11:55.300Z,82.20
2018-08-13T16:14:29.855Z,81.26
2018-08-13T16:17:05.355Z,77.99
2018-08-13T16:19:40.264Z,78.08
2018-08-13T16:22:16.383Z,79.05
2018-08-13T16:24:57.445Z,80.83
2018-08-13T16:27:32.317Z,81.12
2018-08-13T16:30:18.100Z,80.55
2018-08-13T16:32:52.501Z,80.62
2018-08-13T16:35:27.319Z,81.47
2018-08-13T16:38:02.646Z,81.63
2018-08-13T16:40:37.516Z,82.08
2018-08-13T16:43:32.893Z,81.44
2018-08-13T16:46:08.608Z,81.73
2018-08-13T16:48:48.457Z,81.80
2018-08-13T16:51:22.976Z,82.03
2018-08-13T16:53:57.765Z,81.07
2018-08-13T16:56:38.076Z,82.17
2018-08-13T16:59:18.459Z,82.25
2018-08-13T17:01:53.394Z,82.28
2018-08-13T17:04:33.238Z,82.00
2018-08-13T17:07:08.559Z,82.09
2018-08-13T17:09:44.714Z,81.95
2018-08-13T17:12:21.120Z,82.52
2018-08-13T17:15:01.963Z,82.52
2018-08-13T17:17:41.536Z,82.08
2018-08-13T17:20:17.980Z,81.32
2018-08-13T17:22:52.676Z,80.96
2018-08-13T17:25:27.255Z,80.80
2018-08-13T17:28:06.551Z,81.94
2018-08-13T17:30:41.448Z,81.39
2018-08-13T17:33:16.283Z,81.18
2018-08-13T17:35:51.267Z,81.32
2018-08-13T17:38:26.002Z,81.39
2018-08-13T17:41:00.416Z,81.53
2018-08-13T17:43:34.935Z,81.28
2018-08-13T17:46:09.933Z,81.20
2018-08-13T17:48:44.381Z,81.47
2018-08-13T17:51:19.025Z,81.04
2018-08-13T17:53:53.996Z,81.57
2018-08-13T17:56:29.058Z,81.34
2018-08-13T17:59:03.820Z,81.14
2018-08-13T18:01:38.748Z,81.29
2018-08-13T18:04:13.232Z,82.27
2018-08-13T18:06:47.605Z,82.05
2018-08-13T18:09:21.981Z,83.19
2018-08-13T18:11:57.199Z,83.45
2018-08-13T18:14:31.683Z,82.57
2018-08-13T18:17:06.557Z,82.74
2018-08-13T18:19:41.348Z,83.12
2018-08-13T18:22:15.700Z,83.59
2018-08-13T18:24:50.833Z,83.08
2018-08-13T18:30:24.532Z,83.37
2018-08-13T18:32:58.928Z,83.90
2018-08-13T18:35:33.628Z,83.28
2018-08-13T18:38:08.913Z,84.03
2018-08-13T18:40:43.616Z,83.62
2018-08-13T18:43:18.210Z,83.19
2018-08-13T18:45:52.745Z,83.00
2018-08-13T18:48:27.478Z,83.59
2018-08-13T18:51:02.669Z,83.61
2018-08-13T18:53:37.280Z,83.69
2018-08-13T18:56:12.209Z,84.04
2018-08-13T18:58:46.883Z,84.15
2018-08-13T19:01:21.252Z,83.25
2018-08-13T19:03:56.036Z,84.09
2018-08-13T19:06:30.393Z,83.95
2018-08-13T19:09:07.368Z,83.99
2018-08-13T19:11:41.721Z,83.46
2018-08-13T19:14:16.701Z,83.37
2018-08-13T19:16:51.245Z,83.58
2018-08-13T19:19:26.077Z,83.29
2018-08-13T19:22:00.762Z,83.02
2018-08-13T19:24:35.365Z,83.67
2018-08-13T19:27:10.337Z,82.84
2018-08-13T19:29:44.953Z,82.99
2018-08-13T19:32:19.397Z,83.12
2018-08-13T19:34:54.406Z,82.90
2018-08-13T19:37:29.191Z,84.21
2018-08-13T19:40:04.313Z,83.93
2018-08-13T19:42:39.032Z,82.93
2018-08-13T19:45:14.795Z,83.59
2018-08-13T19:47:49.619Z,83.59
2018-08-13T19:50:24.532Z,82.63
2018-08-13T19:52:58.944Z,83.30
2018-08-13T19:55:33.844Z,82.90
2018-08-13T19:58:08.578Z,83.72
2018-08-13T20:00:43.257Z,83.67
2018-08-13T20:03:18.353Z,83.08
2018-08-13T20:05:53.128Z,83.14
2018-08-13T20:08:28.121Z,82.97
2018-08-13T20:11:02.663Z,83.33
2018-08-13T20:13:37.120Z,83.25
2018-08-13T20:16:12.061Z,83.59
2018-08-13T20:18:46.754Z,84.11
2018-08-13T20:21:21.764Z,84.14
2018-08-13T20:23:56.912Z,84.23
2018-08-13T20:26:31.372Z,83.60
2018-08-13T20:29:06.142Z,84.24
2018-08-13T20:31:40.689Z,83.68
2018-08-13T20:34:15.422Z,84.19
2018-08-13T20:36:49.932Z,83.56
2018-08-13T20:39:25.378Z,84.48
2018-08-13T20:41:59.893Z,84.29
2018-08-13T20:44:35.069Z,83.72
2018-08-13T20:47:09.707Z,83.70
2018-08-13T20:49:44.261Z,83.92
2018-08-13T20:52:18.904Z,83.69
2018-08-13T20:54:53.348Z,83.11
2018-08-13T20:57:28.024Z,83.95
2018-08-13T21:00:02.493Z,83.50
2018-08-13T21:02:36.984Z,83.72
2018-08-13T21:05:11.761Z,83.41
2018-08-13T21:07:47.282Z,83.44
2018-08-13T21:10:23.261Z,83.65
2018-08-13T21:12:57.893Z,83.85
2018-08-13T21:15:33.804Z,84.54
2018-08-13T21:18:08.269Z,84.44
2018-08-13T21:20:43.133Z,84.08
2018-08-13T21:23:18.008Z,84.38
2018-08-13T21:26:02.295Z,83.75
2018-08-13T21:28:36.778Z,84.40
2018-08-13T21:31:12.156Z,84.22
2018-08-13T21:33:47.522Z,84.63
2018-08-13T21:36:27.412Z,84.28
2018-08-13T21:42:23.762Z,84.67
2018-08-13T21:45:00.012Z,84.34
2018-08-13T21:47:36.519Z,84.23
2018-08-13T21:50:16.665Z,84.54
2018-08-13T21:52:51.886Z,85.11
2018-08-13T21:55:26.672Z,84.74
2018-08-13T21:58:01.000Z,84.55
2018-08-13T22:00:40.845Z,85.12
2018-08-13T22:03:15.721Z,84.45
2018-08-13T22:05:50.384Z,85.12
2018-08-13T22:08:24.924Z,85.13
2018-08-13T22:11:00.439Z,85.04
2018-08-13T22:13:45.088Z,84.86
2018-08-13T22:16:20.578Z,84.68
2018-08-13T22:18:55.850Z,83.90
2018-08-13T22:21:30.993Z,84.23
2018-08-13T22:27:05.027Z,85.19
2018-08-13T22:29:41.057Z,85.43
2018-08-13T22:32:16.801Z,85.58
2018-08-13T22:34:51.696Z,85.95
2018-08-13T22:37:26.107Z,85.74
2018-08-13T22:40:01.068Z,85.44
2018-08-13T22:42:35.892Z,86.12
2018-08-13T22:45:10.956Z,85.13
2018-08-13T22:47:45.839Z,84.71
2018-08-13T22:50:20.448Z,85.11
2018-08-13T22:53:13.018Z,84.12
2018-08-13T22:55:48.257Z,84.36
2018-08-13T22:58:23.018Z,83.88
2018-08-13T23:00:57.471Z,84.00
2018-08-13T23:03:31.936Z,84.06
2018-08-13T23:06:06.640Z,84.32
2018-08-13T23:08:41.228Z,84.32
2018-08-13T23:11:16.085Z,84.08
2018-08-13T23:13:50.756Z,84.81
2018-08-13T23:16:26.530Z,84.85
2018-08-13T23:19:01.480Z,84.69
2018-08-13T23:21:35.985Z,84.23
2018-08-13T23:24:10.481Z,84.39
2018-08-13T23:26:45.293Z,84.30
2018-08-13T23:29:20.009Z,84.43
2018-08-13T23:31:54.337Z,84.38
2018-08-13T23:34:28.998Z,84.86
2018-08-13T23:37:03.828Z,84.19
2018-08-13T23:39:38.425Z,84.81
2018-08-13T23:42:13.085Z,84.98
2018-08-13T23:44:50.340Z,84.77
2018-08-13T23:47:25.111Z,84.06
2018-08-13T23:49:59.385Z,84.48
2018-08-13T23:52:33.709Z,84.03
2018-08-13T23:55:11.359Z,84.72
2018-08-13T23:57:46.492Z,84.11
